sensor_id;sensor_type;location;lat;lon;timestamp;temperature;humidity
6724;DHT22;3399;52.530;13.304;2023-03-01T00:02:19;-0.70;99.90
6724;DHT22;3399;52.530;13.304;2023-03-01T00:04:44;-0.70;99.90
6724;DHT22;3399;52.530;13.304;2023-03-01T00:07:10;-0.70;99.90
6724;DHT22;3399;52.530;13.304;2023-03-01T00:09:36;-0.70;99.90
6724;DHT22;3399;52.530;13.304;2023-03-01T00:12:02;-0.70;99.90
6724;DHT22;3399;52.530;13.304;2023-03-01T00:14:28;-0.70;99.90
6724;DHT22;3399;52.530;13.304;2023-03-01T00:16:54;-0.80;99.90
6724;DHT22;3399;52.530;13.304;2023-03-01T00:19:20;-0.80;99.90
6724;DHT22;3399;52.530;13.304;2023-03-01T00:21:47;-0.80;99.90
6724;DHT22;3399;52.530;13.304;2023-03-01T00:24:13;-0.80;99.90
6724;DHT22;3399;52.530;13.304;2023-03-01T00:26:39;-0.80;99.90
6724;DHT22;3399;52.530;13.304;2023-03-01T00:29:05;-0.90;99.90
6724;DHT22;3399;52.530;13.304;2023-03-01T00:31:32;-0.90;99.90
6724;DHT22;3399;52.530;13.304;2023-03-01T00:34:00;-0.90;99.90
6724;DHT22;3399;52.530;13.304;2023-03-01T00:36:28;-0.90;99.90
6724;DHT22;3399;52.530;13.304;2023-03-01T00:38:54;-0.90;99.90
6724;DHT22;3399;52.530;13.304;2023-03-01T00:41:20;-0.90;99.90
6724;DHT22;3399;52.530;13.304;2023-03-01T00:43:48;-1.00;99.90
6724;DHT22;3399;52.530;13.304;2023-03-01T00:46:16;-1.10;99.90
6724;DHT22;3399;52.530;13.304;2023-03-01T00:48:43;-1.10;99.90
6724;DHT22;3399;52.530;13.304;2023-03-01T00:51:20;-1.20;99.90
6724;DHT22;3399;52.530;13.304;2023-03-01T00:53:46;-1.30;99.90
6724;DHT22;3399;52.530;13.304;2023-03-01T00:56:13;-1.30;99.90
6724;DHT22;3399;52.530;13.304;2023-03-01T00:58:39;-1.40;99.90
6724;DHT22;3399;52.530;13.304;2023-03-01T01:01:09;-1.40;99.90
6724;DHT22;3399;52.530;13.304;2023-03-01T01:03:55;-1.40;99.90
6724;DHT22;3399;52.530;13.304;2023-03-01T01:06:24;-1.40;99.90
6724;DHT22;3399;52.530;13.304;2023-03-01T01:08:51;-1.40;99.90
6724;DHT22;3399;52.530;13.304;2023-03-01T01:11:17;-1.30;99.90
6724;DHT22;3399;52.530;13.304;2023-03-01T01:13:45;-1.30;99.90
6724;DHT22;3399;52.530;13.304;2023-03-01T01:16:11;-1.20;99.90
6724;DHT22;3399;52.530;13.304;2023-03-01T01:18:37;-1.10;99.90
6724;DHT22;3399;52.530;13.304;2023-03-01T01:21:08;-1.00;99.90
6724;DHT22;3399;52.530;13.304;2023-03-01T01:23:34;-1.10;99.90
6724;DHT22;3399;52.530;13.304;2023-03-01T01:26:05;-1.30;99.90
6724;DHT22;3399;52.530;13.304;2023-03-01T01:28:30;-1.40;99.90
6724;DHT22;3399;52.530;13.304;2023-03-01T01:30:56;-1.30;99.90
6724;DHT22;3399;52.530;13.304;2023-03-01T01:33:21;-1.30;99.90
6724;DHT22;3399;52.530;13.304;2023-03-01T01:35:47;-1.20;99.90
6724;DHT22;3399;52.530;13.304;2023-03-01T01:38:12;-1.30;99.90
6724;DHT22;3399;52.530;13.304;2023-03-01T01:40:45;-1.40;99.90
6724;DHT22;3399;52.530;13.304;2023-03-01T01:43:22;-1.50;99.90
6724;DHT22;3399;52.530;13.304;2023-03-01T01:45:48;-1.60;99.90
6724;DHT22;3399;52.530;13.304;2023-03-01T01:48:20;-1.60;99.90
6724;DHT22;3399;52.530;13.304;2023-03-01T01:50:51;-1.70;99.90
6724;DHT22;3399;52.530;13.304;2023-03-01T01:53:19;-1.70;99.90
6724;DHT22;3399;52.530;13.304;2023-03-01T01:55:49;-1.60;99.90
6724;DHT22;3399;52.530;13.304;2023-03-01T01:58:19;-1.60;99.90
6724;DHT22;3399;52.530;13.304;2023-03-01T02:00:45;-1.60;99.90
6724;DHT22;3399;52.530;13.304;2023-03-01T02:03:14;-1.60;99.90
6724;DHT22;3399;52.530;13.304;2023-03-01T02:06:01;-1.60;99.90
6724;DHT22;3399;52.530;13.304;2023-03-01T02:08:30;-1.60;99.90
6724;DHT22;3399;52.530;13.304;2023-03-01T02:10:58;-1.60;99.90
6724;DHT22;3399;52.530;13.304;2023-03-01T02:13:25;-1.60;99.90
6724;DHT22;3399;52.530;13.304;2023-03-01T02:15:51;-1.50;99.90
6724;DHT22;3399;52.530;13.304;2023-03-01T02:18:18;-1.50;99.90
6724;DHT22;3399;52.530;13.304;2023-03-01T02:21:05;-1.60;99.90
6724;DHT22;3399;52.530;13.304;2023-03-01T02:23:33;-1.60;99.90
6724;DHT22;3399;52.530;13.304;2023-03-01T02:26:06;-1.50;99.90
6724;DHT22;3399;52.530;13.304;2023-03-01T02:28:36;-1.50;99.90
6724;DHT22;3399;52.530;13.304;2023-03-01T02:31:04;-1.50;99.90
6724;DHT22;3399;52.530;13.304;2023-03-01T02:33:49;-1.60;99.90
6724;DHT22;3399;52.530;13.304;2023-03-01T02:36:29;-1.70;99.90
6724;DHT22;3399;52.530;13.304;2023-03-01T02:38:58;-1.80;99.90
6724;DHT22;3399;52.530;13.304;2023-03-01T02:41:26;-1.80;99.90
6724;DHT22;3399;52.530;13.304;2023-03-01T02:43:53;-1.90;99.90
6724;DHT22;3399;52.530;13.304;2023-03-01T02:46:24;-1.90;99.90
6724;DHT22;3399;52.530;13.304;2023-03-01T02:48:56;-1.80;99.90
6724;DHT22;3399;52.530;13.304;2023-03-01T02:54:26;-1.80;99.90
6724;DHT22;3399;52.530;13.304;2023-03-01T02:56:53;-1.80;99.90
6724;DHT22;3399;52.530;13.304;2023-03-01T02:59:21;-1.80;99.90
6724;DHT22;3399;52.530;13.304;2023-03-01T03:01:47;-1.90;99.90
6724;DHT22;3399;52.530;13.304;2023-03-01T03:04:16;-1.90;99.90
6724;DHT22;3399;52.530;13.304;2023-03-01T03:06:47;-1.90;99.90
6724;DHT22;3399;52.530;13.304;2023-03-01T03:09:14;-1.90;99.90
6724;DHT22;3399;52.530;13.304;2023-03-01T03:11:41;-1.90;99.90
6724;DHT22;3399;52.530;13.304;2023-03-01T03:14:08;-1.90;99.90
6724;DHT22;3399;52.530;13.304;2023-03-01T03:16:42;-1.90;99.90
6724;DHT22;3399;52.530;13.304;2023-03-01T03:19:08;-1.90;99.90
6724;DHT22;3399;52.530;13.304;2023-03-01T03:21:34;-1.90;99.90
6724;DHT22;3399;52.530;13.304;2023-03-01T03:23:59;-2.00;99.90
6724;DHT22;3399;52.530;13.304;2023-03-01T03:26:25;-2.00;99.90
6724;DHT22;3399;52.530;13.304;2023-03-01T03:28:50;-2.20;99.90
6724;DHT22;3399;52.530;13.304;2023-03-01T03:31:16;-2.30;99.90
6724;DHT22;3399;52.530;13.304;2023-03-01T03:33:42;-2.30;99.90
6724;DHT22;3399;52.530;13.304;2023-03-01T03:36:08;-2.20;99.90
6724;DHT22;3399;52.530;13.304;2023-03-01T03:38:38;-2.20;99.90
6724;DHT22;3399;52.530;13.304;2023-03-01T03:41:06;-2.20;99.90
6724;DHT22;3399;52.530;13.304;2023-03-01T03:43:34;-2.20;99.90
6724;DHT22;3399;52.530;13.304;2023-03-01T03:46:00;-2.30;99.90
6724;DHT22;3399;52.530;13.304;2023-03-01T03:48:26;-2.40;99.90
6724;DHT22;3399;52.530;13.304;2023-03-01T03:50:54;-2.40;99.90
6724;DHT22;3399;52.530;13.304;2023-03-01T03:53:21;-2.40;99.90
6724;DHT22;3399;52.530;13.304;2023-03-01T03:55:47;-2.40;99.90
6724;DHT22;3399;52.530;13.304;2023-03-01T03:58:15;-2.40;99.90
6724;DHT22;3399;52.530;13.304;2023-03-01T04:00:43;-2.40;99.90
6724;DHT22;3399;52.530;13.304;2023-03-01T04:03:10;-2.50;99.90
6724;DHT22;3399;52.530;13.304;2023-03-01T04:05:37;-2.50;99.90
6724;DHT22;3399;52.530;13.304;2023-03-01T04:08:03;-2.40;99.90
6724;DHT22;3399;52.530;13.304;2023-03-01T04:10:37;-2.40;99.90
6724;DHT22;3399;52.530;13.304;2023-03-01T04:13:04;-2.30;99.90
6724;DHT22;3399;52.530;13.304;2023-03-01T04:15:31;-2.30;99.90
6724;DHT22;3399;52.530;13.304;2023-03-01T04:17:57;-2.30;99.90
6724;DHT22;3399;52.530;13.304;2023-03-01T04:20:26;-2.40;99.90
6724;DHT22;3399;52.530;13.304;2023-03-01T04:23:03;-2.50;99.90
6724;DHT22;3399;52.530;13.304;2023-03-01T04:25:44;-2.70;99.90
6724;DHT22;3399;52.530;13.304;2023-03-01T04:28:10;-2.80;99.90
6724;DHT22;3399;52.530;13.304;2023-03-01T04:30:37;-2.90;99.90
6724;DHT22;3399;52.530;13.304;2023-03-01T04:33:05;-2.80;99.90
6724;DHT22;3399;52.530;13.304;2023-03-01T04:35:31;-2.80;99.90
6724;DHT22;3399;52.530;13.304;2023-03-01T04:37:57;-2.80;99.90
6724;DHT22;3399;52.530;13.304;2023-03-01T04:40:23;-2.70;99.90
6724;DHT22;3399;52.530;13.304;2023-03-01T04:42:49;-2.70;99.90
6724;DHT22;3399;52.530;13.304;2023-03-01T04:45:14;-2.60;99.90
6724;DHT22;3399;52.530;13.304;2023-03-01T04:47:41;-2.60;99.90
6724;DHT22;3399;52.530;13.304;2023-03-01T04:50:08;-2.50;99.90
6724;DHT22;3399;52.530;13.304;2023-03-01T04:52:34;-2.50;99.90
6724;DHT22;3399;52.530;13.304;2023-03-01T04:55:00;-2.50;99.90
6724;DHT22;3399;52.530;13.304;2023-03-01T04:57:26;-2.60;99.90
6724;DHT22;3399;52.530;13.304;2023-03-01T04:59:51;-2.50;99.90
6724;DHT22;3399;52.530;13.304;2023-03-01T05:02:17;-2.60;99.90
6724;DHT22;3399;52.530;13.304;2023-03-01T05:04:42;-2.70;99.90
6724;DHT22;3399;52.530;13.304;2023-03-01T05:07:08;-2.70;99.90
6724;DHT22;3399;52.530;13.304;2023-03-01T05:09:34;-2.70;99.90
6724;DHT22;3399;52.530;13.304;2023-03-01T05:11:59;-2.80;99.90
6724;DHT22;3399;52.530;13.304;2023-03-01T05:14:25;-2.80;99.90
6724;DHT22;3399;52.530;13.304;2023-03-01T05:16:50;-2.80;99.90
6724;DHT22;3399;52.530;13.304;2023-03-01T05:19:16;-2.80;99.90
6724;DHT22;3399;52.530;13.304;2023-03-01T05:21:42;-2.80;99.90
6724;DHT22;3399;52.530;13.304;2023-03-01T05:24:27;-2.90;99.90
6724;DHT22;3399;52.530;13.304;2023-03-01T05:26:53;-3.00;99.90
6724;DHT22;3399;52.530;13.304;2023-03-01T05:29:22;-3.00;99.90
6724;DHT22;3399;52.530;13.304;2023-03-01T05:31:55;-2.90;99.90
6724;DHT22;3399;52.530;13.304;2023-03-01T05:34:33;-2.80;99.90
6724;DHT22;3399;52.530;13.304;2023-03-01T05:37:00;-2.70;99.90
6724;DHT22;3399;52.530;13.304;2023-03-01T05:39:27;-2.60;99.90
6724;DHT22;3399;52.530;13.304;2023-03-01T05:41:55;-2.60;99.90
6724;DHT22;3399;52.530;13.304;2023-03-01T05:44:21;-2.60;99.90
6724;DHT22;3399;52.530;13.304;2023-03-01T05:46:47;-2.60;99.90
6724;DHT22;3399;52.530;13.304;2023-03-01T05:49:13;-2.70;99.90
6724;DHT22;3399;52.530;13.304;2023-03-01T05:51:40;-2.70;99.90
6724;DHT22;3399;52.530;13.304;2023-03-01T05:54:05;-2.70;99.90
6724;DHT22;3399;52.530;13.304;2023-03-01T05:56:34;-2.70;99.90
6724;DHT22;3399;52.530;13.304;2023-03-01T05:59:01;-2.60;99.90
6724;DHT22;3399;52.530;13.304;2023-03-01T06:01:26;-2.70;99.90
6724;DHT22;3399;52.530;13.304;2023-03-01T06:03:52;-2.60;99.90
6724;DHT22;3399;52.530;13.304;2023-03-01T06:06:17;-2.60;99.90
6724;DHT22;3399;52.530;13.304;2023-03-01T06:08:43;-2.60;99.90
6724;DHT22;3399;52.530;13.304;2023-03-01T06:11:08;-2.60;99.90
6724;DHT22;3399;52.530;13.304;2023-03-01T06:13:34;-2.50;99.90
6724;DHT22;3399;52.530;13.304;2023-03-01T06:15:59;-2.50;99.90
6724;DHT22;3399;52.530;13.304;2023-03-01T06:18:25;-2.50;99.90
6724;DHT22;3399;52.530;13.304;2023-03-01T06:20:54;-2.50;99.90
6724;DHT22;3399;52.530;13.304;2023-03-01T06:23:20;-2.50;99.90
6724;DHT22;3399;52.530;13.304;2023-03-01T06:25:45;-2.40;99.90
6724;DHT22;3399;52.530;13.304;2023-03-01T06:28:11;-2.40;99.90
6724;DHT22;3399;52.530;13.304;2023-03-01T06:30:36;-2.30;99.90
6724;DHT22;3399;52.530;13.304;2023-03-01T06:33:02;-2.30;99.90
6724;DHT22;3399;52.530;13.304;2023-03-01T06:35:29;-2.20;99.90
6724;DHT22;3399;52.530;13.304;2023-03-01T06:37:55;-2.20;99.90
6724;DHT22;3399;52.530;13.304;2023-03-01T06:40:22;-2.00;99.90
6724;DHT22;3399;52.530;13.304;2023-03-01T06:42:49;-2.00;99.90
6724;DHT22;3399;52.530;13.304;2023-03-01T06:45:15;-1.90;99.90
6724;DHT22;3399;52.530;13.304;2023-03-01T06:47:40;-2.00;99.90
6724;DHT22;3399;52.530;13.304;2023-03-01T06:50:06;-2.00;99.90
6724;DHT22;3399;52.530;13.304;2023-03-01T06:52:32;-2.00;99.90
6724;DHT22;3399;52.530;13.304;2023-03-01T06:54:58;-2.00;99.90
6724;DHT22;3399;52.530;13.304;2023-03-01T06:57:23;-2.00;99.90
6724;DHT22;3399;52.530;13.304;2023-03-01T06:59:49;-1.90;99.90
6724;DHT22;3399;52.530;13.304;2023-03-01T07:02:14;-1.90;99.90
6724;DHT22;3399;52.530;13.304;2023-03-01T07:04:40;-1.80;99.90
6724;DHT22;3399;52.530;13.304;2023-03-01T07:07:06;-1.80;99.90
6724;DHT22;3399;52.530;13.304;2023-03-01T07:09:32;-1.70;99.90
6724;DHT22;3399;52.530;13.304;2023-03-01T07:11:58;-1.60;99.90
6724;DHT22;3399;52.530;13.304;2023-03-01T07:14:24;-1.60;99.90
6724;DHT22;3399;52.530;13.304;2023-03-01T07:16:51;-1.60;99.90
6724;DHT22;3399;52.530;13.304;2023-03-01T07:19:16;-1.50;99.90
6724;DHT22;3399;52.530;13.304;2023-03-01T07:21:42;-1.40;99.90
6724;DHT22;3399;52.530;13.304;2023-03-01T07:24:08;-1.20;99.90
6724;DHT22;3399;52.530;13.304;2023-03-01T07:26:33;-1.00;99.90
6724;DHT22;3399;52.530;13.304;2023-03-01T07:29:00;-0.90;99.90
6724;DHT22;3399;52.530;13.304;2023-03-01T07:31:26;-0.70;99.90
6724;DHT22;3399;52.530;13.304;2023-03-01T07:33:53;-0.60;99.90
6724;DHT22;3399;52.530;13.304;2023-03-01T07:36:19;-0.50;99.90
6724;DHT22;3399;52.530;13.304;2023-03-01T07:38:45;-0.40;99.90
6724;DHT22;3399;52.530;13.304;2023-03-01T07:41:10;-0.20;99.90
6724;DHT22;3399;52.530;13.304;2023-03-01T07:43:36;0.00;99.90
6724;DHT22;3399;52.530;13.304;2023-03-01T07:46:02;0.10;99.90
6724;DHT22;3399;52.530;13.304;2023-03-01T07:48:29;0.20;99.90
6724;DHT22;3399;52.530;13.304;2023-03-01T07:50:57;0.30;99.90
6724;DHT22;3399;52.530;13.304;2023-03-01T07:53:22;0.50;99.90
6724;DHT22;3399;52.530;13.304;2023-03-01T07:55:48;0.60;99.90
6724;DHT22;3399;52.530;13.304;2023-03-01T07:58:13;0.60;99.90
6724;DHT22;3399;52.530;13.304;2023-03-01T08:00:39;0.70;99.90
6724;DHT22;3399;52.530;13.304;2023-03-01T08:03:04;0.80;99.90
6724;DHT22;3399;52.530;13.304;2023-03-01T08:05:30;1.00;99.90
6724;DHT22;3399;52.530;13.304;2023-03-01T08:07:55;1.10;99.90
6724;DHT22;3399;52.530;13.304;2023-03-01T08:10:21;1.20;99.90
6724;DHT22;3399;52.530;13.304;2023-03-01T08:12:46;1.30;99.90
6724;DHT22;3399;52.530;13.304;2023-03-01T08:15:12;1.40;99.90
6724;DHT22;3399;52.530;13.304;2023-03-01T08:17:38;1.50;99.90
6724;DHT22;3399;52.530;13.304;2023-03-01T08:20:06;1.70;99.90
6724;DHT22;3399;52.530;13.304;2023-03-01T08:22:32;1.80;99.90
6724;DHT22;3399;52.530;13.304;2023-03-01T08:24:57;2.00;99.90
6724;DHT22;3399;52.530;13.304;2023-03-01T08:27:23;2.10;99.90
6724;DHT22;3399;52.530;13.304;2023-03-01T08:29:48;2.30;99.90
6724;DHT22;3399;52.530;13.304;2023-03-01T08:32:14;2.30;99.90
6724;DHT22;3399;52.530;13.304;2023-03-01T08:34:39;2.40;99.90
6724;DHT22;3399;52.530;13.304;2023-03-01T08:37:05;2.50;99.90
6724;DHT22;3399;52.530;13.304;2023-03-01T08:39:30;2.60;99.90
6724;DHT22;3399;52.530;13.304;2023-03-01T08:41:56;2.70;99.90
6724;DHT22;3399;52.530;13.304;2023-03-01T08:44:22;2.80;99.90
6724;DHT22;3399;52.530;13.304;2023-03-01T08:46:48;2.80;99.90
6724;DHT22;3399;52.530;13.304;2023-03-01T08:49:17;2.90;99.90
6724;DHT22;3399;52.530;13.304;2023-03-01T08:51:43;2.90;99.90
6724;DHT22;3399;52.530;13.304;2023-03-01T08:54:18;3.00;99.90
6724;DHT22;3399;52.530;13.304;2023-03-01T08:56:44;3.00;99.90
6724;DHT22;3399;52.530;13.304;2023-03-01T08:59:11;3.30;99.90
6724;DHT22;3399;52.530;13.304;2023-03-01T09:01:37;3.40;99.90
6724;DHT22;3399;52.530;13.304;2023-03-01T09:04:03;3.40;99.90
6724;DHT22;3399;52.530;13.304;2023-03-01T09:06:32;3.50;99.90
6724;DHT22;3399;52.530;13.304;2023-03-01T09:08:59;3.60;99.60
6724;DHT22;3399;52.530;13.304;2023-03-01T09:11:24;3.60;99.30
6724;DHT22;3399;52.530;13.304;2023-03-01T09:13:50;3.70;99.20
6724;DHT22;3399;52.530;13.304;2023-03-01T09:16:18;3.80;99.50
6724;DHT22;3399;52.530;13.304;2023-03-01T09:18:48;3.80;98.80
6724;DHT22;3399;52.530;13.304;2023-03-01T09:21:15;3.70;98.60
6724;DHT22;3399;52.530;13.304;2023-03-01T09:23:43;3.70;98.80
6724;DHT22;3399;52.530;13.304;2023-03-01T09:26:11;3.80;98.80
6724;DHT22;3399;52.530;13.304;2023-03-01T09:28:37;3.90;98.90
6724;DHT22;3399;52.530;13.304;2023-03-01T09:31:03;3.90;98.30
6724;DHT22;3399;52.530;13.304;2023-03-01T09:33:29;3.90;98.50
6724;DHT22;3399;52.530;13.304;2023-03-01T09:35:59;3.90;98.40
6724;DHT22;3399;52.530;13.304;2023-03-01T09:38:26;4.00;98.40
6724;DHT22;3399;52.530;13.304;2023-03-01T09:40:52;4.00;98.70
6724;DHT22;3399;52.530;13.304;2023-03-01T09:43:20;4.10;98.90
6724;DHT22;3399;52.530;13.304;2023-03-01T09:45:48;4.10;98.50
6724;DHT22;3399;52.530;13.304;2023-03-01T09:48:18;4.20;98.00
6724;DHT22;3399;52.530;13.304;2023-03-01T09:50:45;4.30;98.20
6724;DHT22;3399;52.530;13.304;2023-03-01T09:53:27;4.30;98.20
6724;DHT22;3399;52.530;13.304;2023-03-01T09:58:51;4.50;97.60
6724;DHT22;3399;52.530;13.304;2023-03-01T10:04:41;4.60;97.20
6724;DHT22;3399;52.530;13.304;2023-03-01T10:09:38;4.80;95.80
6724;DHT22;3399;52.530;13.304;2023-03-01T10:12:12;4.80;95.20
6724;DHT22;3399;52.530;13.304;2023-03-01T10:15:00;5.00;94.80
6724;DHT22;3399;52.530;13.304;2023-03-01T10:22:43;5.40;93.90
6724;DHT22;3399;52.530;13.304;2023-03-01T10:25:14;5.40;93.60
6724;DHT22;3399;52.530;13.304;2023-03-01T10:27:49;5.60;94.60
6724;DHT22;3399;52.530;13.304;2023-03-01T10:30:23;5.60;93.50
6724;DHT22;3399;52.530;13.304;2023-03-01T10:32:54;5.60;92.80
6724;DHT22;3399;52.530;13.304;2023-03-01T10:38:05;5.70;93.00
6724;DHT22;3399;52.530;13.304;2023-03-01T10:40:33;5.80;93.20
6724;DHT22;3399;52.530;13.304;2023-03-01T10:43:04;6.00;93.00
6724;DHT22;3399;52.530;13.304;2023-03-01T10:45:37;6.10;93.10
6724;DHT22;3399;52.530;13.304;2023-03-01T10:48:24;6.20;92.50
6724;DHT22;3399;52.530;13.304;2023-03-01T10:53:42;6.10;91.00
6724;DHT22;3399;52.530;13.304;2023-03-01T10:56:11;6.40;91.50
6724;DHT22;3399;52.530;13.304;2023-03-01T10:58:40;6.70;92.10
6724;DHT22;3399;52.530;13.304;2023-03-01T11:01:28;6.90;90.30
6724;DHT22;3399;52.530;13.304;2023-03-01T11:04:13;7.10;89.00
6724;DHT22;3399;52.530;13.304;2023-03-01T11:06:40;7.30;89.70
6724;DHT22;3399;52.530;13.304;2023-03-01T11:09:20;7.70;86.80
6724;DHT22;3399;52.530;13.304;2023-03-01T11:11:46;8.00;84.00
6724;DHT22;3399;52.530;13.304;2023-03-01T11:14:20;8.00;82.10
6724;DHT22;3399;52.530;13.304;2023-03-01T11:17:05;8.30;84.30
6724;DHT22;3399;52.530;13.304;2023-03-01T11:19:31;8.50;82.00
6724;DHT22;3399;52.530;13.304;2023-03-01T11:22:03;8.60;78.70
6724;DHT22;3399;52.530;13.304;2023-03-01T11:27:26;8.70;79.40
6724;DHT22;3399;52.530;13.304;2023-03-01T11:29:58;9.00;77.60
6724;DHT22;3399;52.530;13.304;2023-03-01T11:32:26;8.80;70.30
6724;DHT22;3399;52.530;13.304;2023-03-01T11:35:10;8.90;73.20
6724;DHT22;3399;52.530;13.304;2023-03-01T11:37:44;9.20;74.00
6724;DHT22;3399;52.530;13.304;2023-03-01T11:40:15;9.30;71.40
6724;DHT22;3399;52.530;13.304;2023-03-01T11:43:03;9.50;70.40
6724;DHT22;3399;52.530;13.304;2023-03-01T11:50:57;10.20;64.70
6724;DHT22;3399;52.530;13.304;2023-03-01T11:56:16;10.40;59.50
6724;DHT22;3399;52.530;13.304;2023-03-01T12:01:37;10.50;59.10
6724;DHT22;3399;52.530;13.304;2023-03-01T12:06:57;11.30;57.30
6724;DHT22;3399;52.530;13.304;2023-03-01T12:09:53;11.30;58.40
6724;DHT22;3399;52.530;13.304;2023-03-01T12:18:39;12.00;54.00
6724;DHT22;3399;52.530;13.304;2023-03-01T12:21:25;12.30;52.30
6724;DHT22;3399;52.530;13.304;2023-03-01T12:26:52;13.20;51.90
6724;DHT22;3399;52.530;13.304;2023-03-01T12:29:52;13.40;51.80
6724;DHT22;3399;52.530;13.304;2023-03-01T12:32:43;12.30;47.30
6724;DHT22;3399;52.530;13.304;2023-03-01T12:35:34;12.80;49.10
6724;DHT22;3399;52.530;13.304;2023-03-01T12:38:23;13.10;49.10
6724;DHT22;3399;52.530;13.304;2023-03-01T12:41:16;13.40;48.30
6724;DHT22;3399;52.530;13.304;2023-03-01T12:46:39;12.90;46.70
6724;DHT22;3399;52.530;13.304;2023-03-01T12:49:26;13.00;47.60
6724;DHT22;3399;52.530;13.304;2023-03-01T12:52:11;13.60;45.70
6724;DHT22;3399;52.530;13.304;2023-03-01T12:54:38;14.10;44.00
6724;DHT22;3399;52.530;13.304;2023-03-01T12:57:15;14.20;44.40
6724;DHT22;3399;52.530;13.304;2023-03-01T13:03:13;13.90;40.60
6724;DHT22;3399;52.530;13.304;2023-03-01T13:06:08;14.60;39.90
6724;DHT22;3399;52.530;13.304;2023-03-01T13:08:39;14.60;36.30
6724;DHT22;3399;52.530;13.304;2023-03-01T13:11:22;14.60;37.30
6724;DHT22;3399;52.530;13.304;2023-03-01T13:13:48;14.70;37.00
6724;DHT22;3399;52.530;13.304;2023-03-01T13:19:07;16.20;38.40
6724;DHT22;3399;52.530;13.304;2023-03-01T13:21:34;16.40;36.00
6724;DHT22;3399;52.530;13.304;2023-03-01T13:23:59;15.60;34.30
6724;DHT22;3399;52.530;13.304;2023-03-01T13:26:25;15.00;36.10
6724;DHT22;3399;52.530;13.304;2023-03-01T13:28:55;15.10;36.20
6724;DHT22;3399;52.530;13.304;2023-03-01T13:33:51;16.40;36.90
6724;DHT22;3399;52.530;13.304;2023-03-01T13:47:02;14.80;33.50
6724;DHT22;3399;52.530;13.304;2023-03-01T13:49:41;14.90;31.50
6724;DHT22;3399;52.530;13.304;2023-03-01T13:54:55;15.30;33.00
6724;DHT22;3399;52.530;13.304;2023-03-01T13:57:26;15.50;32.00
6724;DHT22;3399;52.530;13.304;2023-03-01T13:59:54;15.90;31.90
6724;DHT22;3399;52.530;13.304;2023-03-01T14:02:20;15.70;32.10
6724;DHT22;3399;52.530;13.304;2023-03-01T14:04:56;15.70;33.30
6724;DHT22;3399;52.530;13.304;2023-03-01T14:07:23;15.60;32.60
6724;DHT22;3399;52.530;13.304;2023-03-01T14:09:56;16.40;32.80
6724;DHT22;3399;52.530;13.304;2023-03-01T14:12:29;16.10;33.20
6724;DHT22;3399;52.530;13.304;2023-03-01T14:15:02;15.70;33.70
6724;DHT22;3399;52.530;13.304;2023-03-01T14:17:51;15.50;34.30
6724;DHT22;3399;52.530;13.304;2023-03-01T14:20:22;15.80;34.70
6724;DHT22;3399;52.530;13.304;2023-03-01T14:22:51;17.20;33.50
6724;DHT22;3399;52.530;13.304;2023-03-01T14:25:22;16.70;33.50
6724;DHT22;3399;52.530;13.304;2023-03-01T14:28:00;16.60;34.20
6724;DHT22;3399;52.530;13.304;2023-03-01T14:30:37;16.30;33.30
6724;DHT22;3399;52.530;13.304;2023-03-01T14:33:06;16.90;33.60
6724;DHT22;3399;52.530;13.304;2023-03-01T14:35:42;18.50;33.50
6724;DHT22;3399;52.530;13.304;2023-03-01T14:38:28;19.20;32.30
6724;DHT22;3399;52.530;13.304;2023-03-01T14:40:58;18.90;32.50
6724;DHT22;3399;52.530;13.304;2023-03-01T14:43:24;18.60;31.80
6724;DHT22;3399;52.530;13.304;2023-03-01T14:45:51;18.70;32.20
6724;DHT22;3399;52.530;13.304;2023-03-01T14:48:17;18.70;31.50
6724;DHT22;3399;52.530;13.304;2023-03-01T14:50:44;17.10;32.00
6724;DHT22;3399;52.530;13.304;2023-03-01T14:53:22;15.90;33.50
6724;DHT22;3399;52.530;13.304;2023-03-01T14:55:52;13.90;34.70
6724;DHT22;3399;52.530;13.304;2023-03-01T14:58:25;12.80;36.70
6724;DHT22;3399;52.530;13.304;2023-03-01T15:00:57;12.00;38.60
6724;DHT22;3399;52.530;13.304;2023-03-01T15:03:46;11.20;40.20
6724;DHT22;3399;52.530;13.304;2023-03-01T15:06:18;10.70;41.80
6724;DHT22;3399;52.530;13.304;2023-03-01T15:08:48;10.20;42.50
6724;DHT22;3399;52.530;13.304;2023-03-01T15:11:23;9.90;44.30
6724;DHT22;3399;52.530;13.304;2023-03-01T15:13:51;9.50;45.00
6724;DHT22;3399;52.530;13.304;2023-03-01T15:16:23;9.40;46.20
6724;DHT22;3399;52.530;13.304;2023-03-01T15:18:55;9.30;46.10
6724;DHT22;3399;52.530;13.304;2023-03-01T15:21:35;9.20;46.60
6724;DHT22;3399;52.530;13.304;2023-03-01T15:24:17;9.10;46.80
6724;DHT22;3399;52.530;13.304;2023-03-01T15:26:59;9.00;47.30
6724;DHT22;3399;52.530;13.304;2023-03-01T15:29:32;8.90;47.90
6724;DHT22;3399;52.530;13.304;2023-03-01T15:32:01;8.80;47.50
6724;DHT22;3399;52.530;13.304;2023-03-01T15:34:34;8.70;47.60
6724;DHT22;3399;52.530;13.304;2023-03-01T15:37:02;8.70;48.10
6724;DHT22;3399;52.530;13.304;2023-03-01T15:39:42;8.70;47.00
6724;DHT22;3399;52.530;13.304;2023-03-01T15:45:22;8.60;47.30
6724;DHT22;3399;52.530;13.304;2023-03-01T15:47:51;8.60;47.70
6724;DHT22;3399;52.530;13.304;2023-03-01T15:50:22;8.60;48.60
6724;DHT22;3399;52.530;13.304;2023-03-01T15:52:48;8.30;49.20
6724;DHT22;3399;52.530;13.304;2023-03-01T15:55:20;8.30;48.70
6724;DHT22;3399;52.530;13.304;2023-03-01T15:57:46;8.20;48.80
6724;DHT22;3399;52.530;13.304;2023-03-01T16:00:13;8.20;48.90
6724;DHT22;3399;52.530;13.304;2023-03-01T16:02:40;8.10;49.60
6724;DHT22;3399;52.530;13.304;2023-03-01T16:05:13;8.00;49.80
6724;DHT22;3399;52.530;13.304;2023-03-01T16:07:40;7.90;50.00
6724;DHT22;3399;52.530;13.304;2023-03-01T16:10:05;7.90;50.60
6724;DHT22;3399;52.530;13.304;2023-03-01T16:12:31;7.80;51.00
6724;DHT22;3399;52.530;13.304;2023-03-01T16:14:56;7.70;51.50
6724;DHT22;3399;52.530;13.304;2023-03-01T16:17:22;7.60;51.80
6724;DHT22;3399;52.530;13.304;2023-03-01T16:19:48;7.50;52.00
6724;DHT22;3399;52.530;13.304;2023-03-01T16:22:14;7.50;52.30
6724;DHT22;3399;52.530;13.304;2023-03-01T16:24:39;7.40;53.00
6724;DHT22;3399;52.530;13.304;2023-03-01T16:27:06;7.30;53.90
6724;DHT22;3399;52.530;13.304;2023-03-01T16:29:32;7.30;54.00
6724;DHT22;3399;52.530;13.304;2023-03-01T16:32:00;7.20;54.60
6724;DHT22;3399;52.530;13.304;2023-03-01T16:34:26;7.10;55.10
6724;DHT22;3399;52.530;13.304;2023-03-01T16:36:51;6.90;55.30
6724;DHT22;3399;52.530;13.304;2023-03-01T16:39:17;6.80;56.30
6724;DHT22;3399;52.530;13.304;2023-03-01T16:41:43;6.80;56.70
6724;DHT22;3399;52.530;13.304;2023-03-01T16:44:08;6.70;57.10
6724;DHT22;3399;52.530;13.304;2023-03-01T16:46:34;6.60;57.50
6724;DHT22;3399;52.530;13.304;2023-03-01T16:49:00;6.50;58.00
6724;DHT22;3399;52.530;13.304;2023-03-01T16:51:26;6.40;58.90
6724;DHT22;3399;52.530;13.304;2023-03-01T16:53:52;6.30;59.30
6724;DHT22;3399;52.530;13.304;2023-03-01T16:56:18;6.20;59.70
6724;DHT22;3399;52.530;13.304;2023-03-01T16:58:44;6.10;60.90
6724;DHT22;3399;52.530;13.304;2023-03-01T17:01:15;6.00;62.00
6724;DHT22;3399;52.530;13.304;2023-03-01T17:03:41;5.90;63.00
6724;DHT22;3399;52.530;13.304;2023-03-01T17:06:10;5.80;63.20
6724;DHT22;3399;52.530;13.304;2023-03-01T17:08:36;5.80;64.90
6724;DHT22;3399;52.530;13.304;2023-03-01T17:11:07;5.70;65.30
6724;DHT22;3399;52.530;13.304;2023-03-01T17:13:34;5.70;66.20
6724;DHT22;3399;52.530;13.304;2023-03-01T17:16:02;5.50;66.60
6724;DHT22;3399;52.530;13.304;2023-03-01T17:18:28;5.50;67.80
6724;DHT22;3399;52.530;13.304;2023-03-01T17:20:54;5.50;69.50
6724;DHT22;3399;52.530;13.304;2023-03-01T17:23:19;5.50;70.40